createdAt,value
2022-09-24T00:01:29.049Z,4.03
2022-09-24T00:03:59.418Z,4.13
2022-09-24T00:06:26.512Z,4.28
2022-09-24T00:08:56.886Z,4.88
2022-09-24T00:11:24.933Z,4.03
2022-09-24T00:13:52.369Z,4.43
2022-09-24T00:16:21.652Z,4.60
2022-09-24T00:18:47.482Z,4.22
2022-09-24T00:21:18.436Z,3.75
2022-09-24T00:23:48.237Z,4.20
2022-09-24T00:26:32.608Z,4.85
2022-09-24T00:28:59.287Z,4.15
2022-09-24T00:31:27.230Z,4.88
2022-09-24T00:33:53.879Z,4.45
2022-09-24T00:36:21.030Z,4.75
2022-09-24T00:38:53.009Z,4.85
2022-09-24T00:41:20.981Z,5.07
2022-09-24T00:43:48.666Z,4.40
2022-09-24T00:46:21.148Z,5.78
2022-09-24T00:48:49.687Z,5.63
2022-09-24T00:51:20.165Z,5.60
2022-09-24T00:53:49.033Z,5.85
2022-09-24T00:56:16.178Z,5.05
2022-09-24T00:58:51.632Z,5.03
2022-09-24T01:03:46.280Z,5.70
2022-09-24T01:06:13.170Z,5.60
2022-09-24T01:08:39.723Z,5.45
2022-09-24T01:11:50.453Z,6.22
2022-09-24T01:14:44.239Z,5.63
2022-09-24T01:17:44.941Z,5.88
2022-09-24T01:20:10.727Z,5.78
2022-09-24T01:22:54.373Z,6.30
2022-09-24T01:25:32.348Z,6.07
2022-09-24T01:28:31.290Z,6.13
2022-09-24T01:31:03.316Z,5.32
2022-09-24T01:33:31.872Z,5.43
2022-09-24T01:36:06.092Z,5.45
2022-09-24T01:38:37.902Z,5.78
2022-09-24T01:41:07.007Z,5.80
2022-09-24T01:43:33.274Z,5.60
2022-09-24T01:46:03.450Z,6.40
2022-09-24T01:48:29.632Z,5.93
2022-09-24T01:51:27.145Z,5.80
2022-09-24T01:54:26.448Z,5.22
2022-09-24T01:57:07.172Z,6.72
2022-09-24T01:59:43.351Z,6.80
2022-09-24T02:02:28.179Z,5.43
2022-09-24T02:05:26.502Z,5.90
2022-09-24T02:08:04.431Z,5.75
2022-09-24T02:10:37.200Z,4.70
2022-09-24T02:13:06.976Z,5.75
2022-09-24T02:15:36.657Z,6.13
2022-09-24T02:18:08.239Z,5.32
2022-09-24T02:20:35.813Z,4.80
2022-09-24T02:23:04.185Z,6.18
2022-09-24T02:25:36.537Z,5.00
2022-09-24T02:28:02.535Z,4.88
2022-09-24T02:30:32.237Z,5.18
2022-09-24T02:32:58.861Z,5.25
2022-09-24T02:35:24.676Z,5.38
2022-09-24T02:37:50.471Z,5.35
2022-09-24T02:40:16.412Z,4.57
2022-09-24T02:42:42.911Z,4.93
2022-09-24T02:45:10.617Z,5.32
2022-09-24T02:47:36.878Z,5.30
2022-09-24T02:50:03.111Z,5.93
2022-09-24T02:52:28.922Z,6.03
2022-09-24T02:54:54.718Z,7.65
2022-09-24T02:57:20.517Z,6.07
2022-09-24T02:59:51.457Z,7.00
2022-09-24T03:02:17.284Z,8.75
2022-09-24T03:04:43.106Z,8.52
2022-09-24T03:07:09.529Z,8.43
2022-09-24T03:09:35.276Z,10.73
2022-09-24T03:12:01.563Z,14.68
2022-09-24T03:14:27.430Z,17.73
2022-09-24T03:16:53.213Z,16.15
2022-09-24T03:19:19.022Z,14.35
2022-09-24T03:21:44.757Z,13.68
2022-09-24T03:24:10.594Z,16.83
2022-09-24T03:26:37.307Z,15.10
2022-09-24T03:29:03.530Z,15.18
2022-09-24T03:31:29.381Z,14.48
2022-09-24T03:33:56.670Z,12.73
2022-09-24T03:36:25.036Z,12.82
2022-09-24T03:38:55.988Z,11.13
2022-09-24T03:41:26.867Z,11.65
2022-09-24T03:43:53.418Z,11.20
2022-09-24T03:46:19.508Z,10.90
2022-09-24T03:48:46.516Z,10.18
2022-09-24T03:51:15.090Z,9.88
2022-09-24T03:53:41.166Z,10.35
2022-09-24T03:56:07.941Z,9.10
2022-09-24T03:58:37.180Z,8.68
2022-09-24T04:01:03.099Z,9.32
2022-09-24T04:03:28.906Z,9.35
2022-09-24T04:05:55.046Z,9.50
2022-09-24T04:08:22.826Z,8.65
2022-09-24T04:10:49.914Z,9.70
2022-09-24T04:13:16.945Z,10.50
2022-09-24T04:15:42.974Z,13.15
2022-09-24T04:18:09.305Z,11.57
2022-09-24T04:20:36.148Z,10.98
2022-09-24T04:23:03.230Z,11.23
2022-09-24T04:25:30.792Z,11.70
2022-09-24T04:28:02.079Z,12.52
2022-09-24T04:30:29.297Z,11.27
2022-09-24T04:32:59.172Z,12.27
2022-09-24T04:35:25.151Z,12.73
2022-09-24T04:37:50.947Z,12.35
2022-09-24T04:40:17.817Z,11.68
2022-09-24T04:42:45.625Z,12.80
2022-09-24T04:45:13.078Z,14.10
2022-09-24T04:47:41.927Z,13.27
2022-09-24T04:50:10.626Z,13.70
2022-09-24T04:52:37.314Z,14.27
2022-09-24T04:55:04.230Z,14.85
2022-09-24T04:57:35.562Z,13.68
2022-09-24T05:00:07.608Z,17.30
2022-09-24T05:02:33.508Z,14.25
2022-09-24T05:04:59.425Z,15.10
2022-09-24T05:07:25.933Z,15.27
2022-09-24T05:09:51.734Z,15.80
2022-09-24T05:12:19.781Z,17.95
2022-09-24T05:14:46.012Z,17.60
2022-09-24T05:17:11.879Z,16.60
2022-09-24T05:19:37.700Z,14.98
2022-09-24T05:22:03.592Z,15.00
2022-09-24T05:24:29.430Z,15.15
2022-09-24T05:27:10.343Z,14.48
2022-09-24T05:29:42.633Z,13.15
2022-09-24T05:32:14.601Z,14.02
2022-09-24T05:34:42.955Z,14.52
2022-09-24T05:37:09.697Z,13.48
2022-09-24T05:39:35.573Z,13.88
2022-09-24T05:42:03.506Z,14.63
2022-09-24T05:44:30.514Z,15.70
2022-09-24T05:46:56.778Z,17.80
2022-09-24T05:49:23.097Z,16.38
2022-09-24T05:51:50.235Z,16.95
2022-09-24T05:54:17.210Z,15.73
2022-09-24T05:56:43.441Z,15.52
2022-09-24T05:59:09.756Z,16.15
2022-09-24T06:01:35.636Z,14.43
2022-09-24T06:04:06.167Z,13.30
2022-09-24T06:06:34.731Z,13.73
2022-09-24T06:09:00.707Z,12.25
2022-09-24T06:11:27.424Z,12.48
2022-09-24T06:13:53.201Z,12.05
2022-09-24T06:16:19.209Z,12.13
2022-09-24T06:18:45.702Z,12.07
2022-09-24T06:21:14.054Z,12.45
2022-09-24T06:23:41.834Z,12.57
2022-09-24T06:26:10.735Z,12.15
2022-09-24T06:28:37.510Z,14.32
2022-09-24T06:31:03.945Z,14.20
2022-09-24T06:33:29.977Z,15.32
2022-09-24T06:36:00.119Z,14.52
2022-09-24T06:38:26.675Z,14.20
2022-09-24T06:40:52.695Z,15.90
2022-09-24T06:43:18.516Z,16.50
2022-09-24T06:45:44.820Z,15.52
2022-09-24T06:48:12.821Z,15.70
2022-09-24T06:50:41.420Z,15.93
2022-09-24T06:53:08.231Z,16.52
2022-09-24T06:55:35.282Z,14.77
2022-09-24T06:58:05.866Z,14.32
2022-09-24T07:00:32.676Z,15.25
2022-09-24T07:02:58.627Z,16.48
2022-09-24T07:05:24.673Z,14.73
2022-09-24T07:07:50.906Z,17.17
2022-09-24T07:10:16.799Z,17.60
2022-09-24T07:12:42.875Z,18.27
2022-09-24T07:15:09.721Z,17.45
2022-09-24T07:17:35.718Z,17.60
2022-09-24T07:20:02.836Z,18.60
2022-09-24T07:22:28.642Z,18.52
2022-09-24T07:24:54.390Z,18.23
2022-09-24T07:27:22.992Z,18.83
2022-09-24T07:29:49.151Z,19.30
2022-09-24T07:32:18.971Z,19.55
2022-09-24T07:34:45.203Z,18.83
2022-09-24T07:37:11.681Z,19.17
2022-09-24T07:39:37.557Z,19.25
2022-09-24T07:42:05.000Z,17.45
2022-09-24T07:44:30.857Z,16.88
2022-09-24T07:46:57.697Z,18.50
2022-09-24T07:49:23.865Z,18.77
2022-09-24T07:51:49.778Z,18.55
2022-09-24T07:54:17.375Z,17.40
2022-09-24T07:56:43.450Z,18.95
2022-09-24T07:59:10.473Z,18.42
2022-09-24T08:01:36.900Z,16.73
2022-09-24T08:04:03.975Z,17.65
2022-09-24T08:06:37.872Z,20.10
2022-09-24T08:09:04.873Z,19.30
2022-09-24T08:11:30.652Z,20.77
2022-09-24T08:13:57.038Z,20.85
2022-09-24T08:16:25.162Z,21.25
2022-09-24T08:18:51.106Z,20.50
2022-09-24T08:21:17.114Z,20.67
2022-09-24T08:23:43.409Z,21.10
2022-09-24T08:26:10.966Z,19.40
2022-09-24T08:28:37.526Z,20.17
2022-09-24T08:31:08.263Z,19.27
2022-09-24T08:33:35.680Z,20.67
2022-09-24T08:36:07.380Z,18.73
2022-09-24T08:38:34.011Z,19.80
2022-09-24T08:41:36.697Z,18.63
2022-09-24T08:44:49.521Z,18.67
2022-09-24T08:47:47.446Z,19.52
2022-09-24T08:50:19.039Z,17.65
2022-09-24T08:52:53.845Z,14.40
2022-09-24T08:55:46.687Z,13.20
2022-09-24T08:58:41.890Z,14.30
2022-09-24T09:01:36.712Z,14.43
2022-09-24T09:04:09.966Z,12.77
2022-09-24T09:07:01.516Z,15.02
2022-09-24T09:09:45.553Z,13.40
2022-09-24T09:12:20.102Z,13.40
2022-09-24T09:15:17.079Z,10.70
2022-09-24T09:17:45.803Z,9.60
2022-09-24T09:20:17.034Z,9.20
2022-09-24T09:22:47.512Z,9.05
2022-09-24T09:25:25.135Z,9.57
2022-09-24T09:27:57.846Z,9.10
2022-09-24T09:30:23.901Z,9.38
2022-09-24T09:33:00.888Z,9.40
2022-09-24T09:35:46.037Z,8.55
2022-09-24T09:38:27.831Z,8.80
2022-09-24T09:41:05.767Z,8.70
2022-09-24T09:43:31.957Z,8.10
2022-09-24T09:46:19.667Z,9.20
2022-09-24T09:48:51.556Z,9.02
2022-09-24T09:51:22.324Z,9.13
2022-09-24T09:53:59.749Z,9.23
2022-09-24T09:56:31.425Z,9.93
2022-09-24T09:59:06.242Z,10.05
2022-09-24T10:01:35.042Z,10.07
2022-09-24T10:04:03.849Z,9.70
2022-09-24T10:06:35.466Z,9.75
2022-09-24T10:09:18.919Z,9.80
2022-09-24T10:11:46.117Z,9.93
2022-09-24T10:14:14.173Z,10.07
2022-09-24T10:16:47.340Z,10.57
2022-09-24T10:19:24.044Z,8.98
2022-09-24T10:21:52.012Z,8.70
2022-09-24T10:24:28.489Z,9.73
2022-09-24T10:26:54.418Z,9.10
2022-09-24T10:29:57.056Z,9.60
2022-09-24T10:32:25.520Z,9.57
2022-09-24T10:35:20.937Z,9.35
2022-09-24T10:37:55.474Z,8.70
2022-09-24T10:40:29.264Z,8.43
2022-09-24T10:43:00.131Z,8.70
2022-09-24T10:45:49.873Z,9.57
2022-09-24T10:48:18.981Z,9.02
2022-09-24T10:50:55.391Z,10.05
2022-09-24T10:53:43.403Z,8.85
2022-09-24T10:56:15.109Z,10.02
2022-09-24T10:59:03.165Z,10.32
2022-09-24T11:01:47.101Z,10.00
2022-09-24T11:04:33.983Z,9.52
2022-09-24T11:07:28.233Z,9.63
2022-09-24T11:10:00.447Z,8.68
2022-09-24T11:12:34.594Z,9.65
2022-09-24T11:15:11.132Z,10.00
2022-09-24T11:17:50.974Z,8.10
2022-09-24T11:20:22.596Z,7.85
2022-09-24T11:23:23.461Z,8.20
2022-09-24T11:26:03.168Z,8.27
2022-09-24T11:29:14.546Z,7.75
2022-09-24T11:31:49.805Z,7.35
2022-09-24T11:34:37.079Z,7.68
2022-09-24T11:37:22.088Z,8.07
2022-09-24T11:40:02.680Z,7.13
2022-09-24T11:42:57.616Z,7.47
2022-09-24T11:45:41.446Z,7.95
2022-09-24T11:48:23.215Z,7.93
2022-09-24T11:51:01.109Z,7.80
2022-09-24T11:53:44.259Z,8.18
2022-09-24T11:56:13.913Z,8.23
2022-09-24T11:58:48.116Z,8.73
2022-09-24T12:01:24.384Z,9.30
2022-09-24T12:04:05.249Z,7.60
2022-09-24T12:06:44.222Z,8.35
2022-09-24T12:09:22.325Z,7.50
2022-09-24T12:11:54.570Z,7.60
2022-09-24T12:14:30.098Z,8.45
2022-09-24T12:17:06.594Z,8.00
2022-09-24T12:19:41.429Z,9.05
2022-09-24T12:22:09.940Z,9.73
2022-09-24T12:24:53.508Z,9.50
2022-09-24T12:27:34.226Z,9.48
2022-09-24T12:30:36.330Z,12.32
2022-09-24T12:33:22.347Z,10.90
2022-09-24T12:36:18.819Z,11.88
2022-09-24T12:38:49.768Z,12.05
2022-09-24T12:41:24.717Z,12.25
2022-09-24T12:44:00.652Z,12.15
2022-09-24T12:46:40.430Z,12.00
2022-09-24T12:49:24.670Z,12.35
2022-09-24T12:51:56.008Z,13.05
2022-09-24T12:54:31.079Z,11.90
2022-09-24T12:57:25.278Z,13.85
2022-09-24T12:59:59.941Z,13.38
2022-09-24T13:02:46.762Z,12.93
2022-09-24T13:05:28.573Z,12.68
2022-09-24T13:08:00.133Z,13.07
2022-09-24T13:10:27.553Z,12.15
2022-09-24T13:12:55.116Z,13.55
2022-09-24T13:15:34.881Z,12.65
2022-09-24T13:18:10.384Z,11.38
2022-09-24T13:23:13.275Z,13.38
2022-09-24T13:25:39.099Z,12.02
2022-09-24T13:28:35.747Z,13.65
2022-09-24T13:31:22.971Z,12.93
2022-09-24T13:33:54.361Z,12.80
2022-09-24T13:36:48.189Z,13.68
2022-09-24T13:39:27.104Z,12.77
2022-09-24T13:42:03.361Z,11.63
2022-09-24T13:44:34.020Z,11.02
2022-09-24T13:47:38.228Z,10.50
2022-09-24T13:50:28.384Z,11.00
2022-09-24T13:52:56.966Z,10.68
2022-09-24T13:55:52.496Z,11.20
2022-09-24T13:58:32.586Z,11.32
2022-09-24T14:01:01.875Z,10.95
2022-09-24T14:03:28.759Z,11.80
2022-09-24T14:05:56.506Z,11.90
2022-09-24T14:08:24.045Z,12.50
2022-09-24T14:10:50.518Z,11.65
2022-09-24T14:13:25.861Z,11.40
2022-09-24T14:16:06.787Z,11.27
2022-09-24T14:18:33.260Z,11.85
2022-09-24T14:21:15.433Z,13.50
2022-09-24T14:23:52.047Z,14.30
2022-09-24T14:26:31.390Z,11.73
2022-09-24T14:29:05.462Z,10.13
2022-09-24T14:31:31.400Z,11.60
2022-09-24T14:34:03.314Z,12.02
2022-09-24T14:36:29.285Z,12.15
2022-09-24T14:39:04.791Z,11.45
2022-09-24T14:41:33.822Z,11.73
2022-09-24T14:44:05.404Z,11.45
2022-09-24T14:46:35.305Z,12.23
2022-09-24T14:49:16.755Z,10.23
2022-09-24T14:51:52.079Z,10.40
2022-09-24T14:54:28.110Z,11.80
2022-09-24T14:56:54.494Z,11.48
2022-09-24T14:59:35.498Z,11.48
2022-09-24T15:02:14.790Z,11.95
2022-09-24T15:04:45.430Z,12.30
2022-09-24T15:07:20.722Z,11.30
2022-09-24T15:10:01.759Z,12.55
2022-09-24T15:12:36.303Z,14.13
2022-09-24T15:15:26.611Z,13.50
2022-09-24T15:17:52.422Z,13.77
2022-09-24T15:20:18.268Z,13.45
2022-09-24T15:22:46.130Z,14.10
2022-09-24T15:25:13.770Z,14.65
2022-09-24T15:27:41.864Z,13.75
2022-09-24T15:30:16.918Z,13.05
2022-09-24T15:32:42.879Z,11.98
2022-09-24T15:35:13.959Z,12.63
2022-09-24T15:37:40.146Z,11.25
2022-09-24T15:40:29.964Z,12.02
2022-09-24T15:42:55.788Z,11.45
2022-09-24T15:45:23.687Z,11.75
2022-09-24T15:47:50.610Z,11.38
2022-09-24T15:50:18.320Z,12.05
2022-09-24T15:52:49.766Z,11.85
2022-09-24T15:55:18.479Z,11.98
2022-09-24T15:57:46.016Z,11.18
2022-09-24T16:00:20.360Z,10.65
2022-09-24T16:02:51.975Z,11.82
2022-09-24T16:05:18.653Z,13.05
2022-09-24T16:07:44.842Z,14.48
2022-09-24T16:10:12.611Z,14.10
2022-09-24T16:12:39.528Z,13.45
2022-09-24T16:15:06.384Z,14.50
2022-09-24T16:17:32.668Z,13.48
2022-09-24T16:19:58.760Z,14.05
2022-09-24T16:22:24.623Z,13.55
2022-09-24T16:24:50.422Z,14.68
2022-09-24T16:27:16.203Z,15.98
2022-09-24T16:29:41.916Z,15.48
2022-09-24T16:32:07.783Z,14.95
2022-09-24T16:34:33.844Z,16.90
2022-09-24T16:37:00.007Z,16.33
2022-09-24T16:39:25.765Z,17.52
2022-09-24T16:41:52.198Z,16.02
2022-09-24T16:44:18.541Z,16.80
2022-09-24T16:46:44.840Z,16.42
2022-09-24T16:49:11.697Z,16.75
2022-09-24T16:51:37.901Z,16.60
2022-09-24T16:54:07.364Z,17.65
2022-09-24T16:56:33.619Z,18.02
2022-09-24T16:58:59.798Z,19.30
2022-09-24T17:01:25.666Z,19.40
2022-09-24T17:03:56.228Z,21.50
2022-09-24T17:06:29.182Z,22.00
2022-09-24T17:09:14.154Z,21.60
2022-09-24T17:11:40.605Z,22.53
2022-09-24T17:14:11.561Z,24.13
2022-09-24T17:16:38.548Z,24.17
2022-09-24T17:19:06.587Z,26.35
2022-09-24T17:21:33.944Z,25.77
2022-09-24T17:23:59.810Z,25.98
2022-09-24T17:26:25.609Z,27.08
2022-09-24T17:28:53.336Z,25.80
2022-09-24T17:31:22.172Z,26.73
2022-09-24T17:34:02.264Z,25.98
2022-09-24T17:36:29.863Z,26.63
2022-09-24T17:38:56.797Z,26.58
2022-09-24T17:41:22.672Z,26.77
2022-09-24T17:43:49.152Z,26.48
2022-09-24T17:46:17.648Z,29.13
2022-09-24T17:48:45.801Z,27.25
2022-09-24T17:51:15.761Z,26.20
2022-09-24T17:53:42.343Z,27.25
2022-09-24T17:56:10.608Z,26.70
2022-09-24T17:58:38.350Z,26.90
2022-09-24T18:01:16.691Z,27.55
2022-09-24T18:03:43.232Z,27.08
2022-09-24T18:06:11.759Z,27.55
2022-09-24T18:08:44.855Z,27.67
2022-09-24T18:11:24.990Z,28.95
2022-09-24T18:13:53.329Z,28.55
2022-09-24T18:16:21.767Z,28.15
2022-09-24T18:18:50.617Z,29.10
2022-09-24T18:21:19.756Z,28.35
2022-09-24T18:23:46.173Z,28.45
2022-09-24T18:26:16.103Z,29.55
2022-09-24T18:28:44.936Z,28.70
2022-09-24T18:31:10.812Z,28.77
2022-09-24T18:33:39.033Z,28.13
2022-09-24T18:36:07.820Z,30.05
2022-09-24T18:38:34.585Z,27.52
2022-09-24T18:41:06.996Z,28.17
2022-09-24T18:43:32.963Z,28.77
2022-09-24T18:46:04.004Z,28.73
2022-09-24T18:48:30.098Z,28.55
2022-09-24T18:50:55.957Z,29.95
2022-09-24T18:53:21.758Z,31.73
2022-09-24T18:55:47.534Z,30.58
2022-09-24T18:58:13.393Z,31.23
2022-09-24T19:00:53.234Z,31.45
2022-09-24T19:03:21.272Z,31.67
2022-09-24T19:05:48.708Z,31.73
2022-09-24T19:08:14.642Z,32.50
2022-09-24T19:10:41.266Z,31.80
2022-09-24T19:13:07.128Z,30.75
2022-09-24T19:15:40.157Z,32.10
2022-09-24T19:18:11.264Z,32.25
2022-09-24T19:20:42.882Z,31.95
2022-09-24T19:23:09.227Z,31.33
2022-09-24T19:25:36.812Z,32.25
2022-09-24T19:28:04.308Z,32.60
2022-09-24T19:30:36.971Z,30.83
2022-09-24T19:33:03.033Z,34.00
2022-09-24T19:35:28.866Z,33.88
2022-09-24T19:37:54.663Z,32.30
2022-09-24T19:40:20.619Z,33.30
2022-09-24T19:42:46.408Z,33.42
2022-09-24T19:45:12.322Z,31.25
2022-09-24T19:47:38.127Z,32.38
2022-09-24T19:50:04.363Z,34.40
2022-09-24T19:52:31.384Z,33.70
2022-09-24T19:54:57.149Z,31.17
2022-09-24T19:57:22.932Z,31.75
2022-09-24T19:59:48.678Z,32.95
2022-09-24T20:02:14.614Z,31.85
2022-09-24T20:04:40.736Z,33.85
2022-09-24T20:07:07.065Z,33.33
2022-09-24T20:09:32.987Z,33.17
2022-09-24T20:11:59.014Z,33.38
2022-09-24T20:14:25.115Z,33.35
2022-09-24T20:16:50.975Z,34.30
2022-09-24T20:19:17.202Z,34.83
2022-09-24T20:21:43.031Z,32.88
2022-09-24T20:24:11.508Z,32.60
2022-09-24T20:26:56.080Z,34.25
2022-09-24T20:29:22.738Z,35.60
2022-09-24T20:31:52.399Z,34.60
2022-09-24T20:34:20.511Z,33.25
2022-09-24T20:36:46.879Z,32.90
2022-09-24T20:39:12.696Z,33.53
2022-09-24T20:41:38.453Z,31.42
2022-09-24T20:44:04.279Z,32.90
2022-09-24T20:46:30.209Z,32.63
2022-09-24T20:48:58.334Z,33.17
2022-09-24T20:51:25.617Z,33.42
2022-09-24T20:53:53.058Z,32.45
2022-09-24T20:56:19.678Z,33.03
2022-09-24T20:58:49.577Z,34.17
2022-09-24T21:01:16.798Z,34.45
2022-09-24T21:03:44.995Z,33.03
2022-09-24T21:06:12.018Z,34.88
2022-09-24T21:08:40.150Z,38.80
2022-09-24T21:11:08.457Z,32.28
2022-09-24T21:13:38.844Z,31.92
2022-09-24T21:16:04.845Z,31.92
2022-09-24T21:18:43.713Z,31.27
2022-09-24T21:21:17.651Z,29.55
2022-09-24T21:23:44.997Z,31.48
2022-09-24T21:26:17.956Z,30.35
2022-09-24T21:28:48.244Z,32.65
2022-09-24T21:31:16.445Z,32.58
2022-09-24T21:33:47.143Z,32.40
2022-09-24T21:36:17.891Z,32.88
2022-09-24T21:38:53.756Z,32.63
2022-09-24T21:41:23.969Z,31.52
2022-09-24T21:43:50.058Z,30.85
2022-09-24T21:46:15.973Z,29.85
2022-09-24T21:48:41.855Z,29.23
2022-09-24T21:51:10.537Z,28.73
2022-09-24T21:53:37.167Z,29.20
2022-09-24T21:56:04.349Z,28.90
2022-09-24T21:58:30.633Z,28.23
2022-09-24T22:01:04.682Z,28.80
2022-09-24T22:03:31.234Z,29.95
2022-09-24T22:05:58.909Z,30.98
2022-09-24T22:08:28.376Z,30.58
2022-09-24T22:11:03.683Z,30.63
2022-09-24T22:13:31.349Z,29.15
2022-09-24T22:15:59.092Z,30.33
2022-09-24T22:18:27.331Z,31.48
2022-09-24T22:20:54.726Z,30.25
2022-09-24T22:23:21.448Z,30.48
2022-09-24T22:25:53.496Z,29.58
2022-09-24T22:28:23.631Z,28.98
2022-09-24T22:30:50.489Z,30.42
2022-09-24T22:33:36.481Z,30.75
2022-09-24T22:38:30.151Z,33.42
2022-09-24T22:40:58.955Z,33.25
2022-09-24T22:43:24.772Z,33.15
2022-09-24T22:45:59.503Z,30.85
2022-09-24T22:48:25.366Z,31.42
2022-09-24T22:50:51.371Z,31.30
2022-09-24T22:53:17.442Z,32.38
2022-09-24T22:55:43.361Z,32.60
2022-09-24T22:58:09.152Z,32.20
2022-09-24T23:00:35.914Z,30.05
2022-09-24T23:03:02.254Z,31.38
2022-09-24T23:05:29.012Z,31.15
2022-09-24T23:07:55.438Z,31.85
2022-09-24T23:10:21.407Z,34.47
2022-09-24T23:12:47.479Z,34.10
2022-09-24T23:15:13.627Z,35.13
2022-09-24T23:17:39.453Z,35.60
2022-09-24T23:20:07.162Z,34.95
2022-09-24T23:22:32.916Z,36.28
2022-09-24T23:24:58.801Z,36.40
2022-09-24T23:27:24.881Z,36.97
2022-09-24T23:29:51.961Z,38.13
2022-09-24T23:32:18.601Z,37.13
2022-09-24T23:34:45.801Z,37.40
2022-09-24T23:37:11.982Z,37.20
2022-09-24T23:39:38.723Z,37.88
2022-09-24T23:42:06.227Z,36.60
2022-09-24T23:44:33.517Z,37.15
2022-09-24T23:47:00.660Z,39.88
2022-09-24T23:49:27.227Z,38.15
2022-09-24T23:51:53.157Z,36.53
2022-09-24T23:54:19.456Z,33.20
2022-09-24T23:56:45.304Z,34.55
2022-09-24T23:59:11.201Z,35.47
